createdAt,value
2023-05-16T00:00:53.208Z,98256.78
2023-05-16T00:03:20.129Z,98255.97
2023-05-16T00:05:46.651Z,98260.22
2023-05-16T00:08:13.118Z,98256.50
2023-05-16T00:10:39.448Z,98253.31
2023-05-16T00:13:07.123Z,98253.84
2023-05-16T00:15:33.546Z,98248.47
2023-05-16T00:17:59.885Z,98244.44
2023-05-16T00:20:26.993Z,98248.47
2023-05-16T00:22:53.874Z,98235.44
2023-05-16T00:25:20.486Z,98240.53
2023-05-16T00:27:46.815Z,98243.97
2023-05-16T00:30:13.206Z,98247.97
2023-05-16T00:32:39.618Z,98247.41
2023-05-16T00:35:06.806Z,98244.75
2023-05-16T00:37:33.137Z,98256.97
2023-05-16T00:39:59.472Z,98253.53
2023-05-16T00:42:26.808Z,98264.44
2023-05-16T00:44:53.359Z,98263.88
2023-05-16T00:47:20.388Z,98251.63
2023-05-16T00:49:46.711Z,98258.81
2023-05-16T00:52:13.065Z,98261.47
2023-05-16T00:54:39.390Z,98258.00
2023-05-16T00:57:06.842Z,98258.00
2023-05-16T00:59:33.277Z,98264.13
2023-05-16T01:01:59.729Z,98263.31
2023-05-16T01:04:26.464Z,98264.38
2023-05-16T01:06:53.088Z,98266.78
2023-05-16T01:09:19.483Z,98263.88
2023-05-16T01:11:53.335Z,98262.25
2023-05-16T01:14:42.968Z,98263.88
2023-05-16T01:17:24.449Z,98260.41
2023-05-16T01:19:53.984Z,98263.88
2023-05-16T01:22:32.028Z,98261.22
2023-05-16T01:25:10.388Z,98257.22
2023-05-16T01:27:36.753Z,98251.09
2023-05-16T01:30:11.189Z,98252.16
2023-05-16T01:32:37.694Z,98242.59
2023-05-16T01:35:04.124Z,98245.47
2023-05-16T01:37:33.629Z,98244.94
2023-05-16T01:40:04.621Z,98246.00
2023-05-16T01:42:30.966Z,98241.50
2023-05-16T01:45:00.062Z,98252.13
2023-05-16T01:47:27.676Z,98257.69
2023-05-16T01:49:54.112Z,98258.75
2023-05-16T01:52:22.962Z,98249.97
2023-05-16T01:54:49.627Z,98253.91
2023-05-16T01:57:22.126Z,98261.66
2023-05-16T01:59:48.427Z,98259.00
2023-05-16T02:02:17.651Z,98263.53
2023-05-16T02:04:44.025Z,98259.31
2023-05-16T02:07:10.343Z,98267.88
2023-05-16T02:09:36.662Z,98267.72
2023-05-16T02:12:02.980Z,98268.25
2023-05-16T02:14:29.535Z,98267.75
2023-05-16T02:16:55.950Z,98265.09
2023-05-16T02:19:22.325Z,98257.16
2023-05-16T02:21:48.729Z,98265.41
2023-05-16T02:24:15.101Z,98262.47
2023-05-16T02:26:41.447Z,98266.22
2023-05-16T02:29:07.781Z,98278.03
2023-05-16T02:31:34.894Z,98271.22
2023-05-16T02:34:01.571Z,98261.13
2023-05-16T02:36:28.157Z,98268.63
2023-05-16T02:38:54.637Z,98279.31
2023-05-16T02:41:22.477Z,98278.53
2023-05-16T02:43:49.106Z,98279.34
2023-05-16T02:46:28.174Z,98285.47
2023-05-16T02:48:54.561Z,98278.03
2023-05-16T02:51:21.211Z,98290.56
2023-05-16T02:53:49.504Z,98294.03
2023-05-16T02:56:15.883Z,98290.31
2023-05-16T02:58:42.750Z,98294.84
2023-05-16T03:01:09.388Z,98302.03
2023-05-16T03:03:36.670Z,98300.94
2023-05-16T03:06:03.264Z,98304.19
2023-05-16T03:08:29.752Z,98308.44
2023-05-16T03:10:56.070Z,98301.50
2023-05-16T03:13:22.957Z,98298.84
2023-05-16T03:15:49.878Z,98300.97
2023-05-16T03:18:16.237Z,98302.56
2023-05-16T03:20:42.550Z,98317.75
2023-05-16T03:23:09.026Z,98316.94
2023-05-16T03:25:36.218Z,98328.41
2023-05-16T03:28:02.921Z,98326.00
2023-05-16T03:30:29.246Z,98326.78
2023-05-16T03:32:55.935Z,98325.47
2023-05-16T03:35:22.478Z,98324.91
2023-05-16T03:37:48.807Z,98325.16
2023-05-16T03:40:15.139Z,98327.28
2023-05-16T03:42:41.480Z,98329.13
2023-05-16T03:45:07.967Z,98332.84
2023-05-16T03:47:34.297Z,98341.91
2023-05-16T03:50:00.674Z,98344.81
2023-05-16T03:52:26.988Z,98347.47
2023-05-16T03:54:53.310Z,98359.97
2023-05-16T03:57:19.623Z,98358.38
2023-05-16T03:59:46.238Z,98355.19
2023-05-16T04:02:12.628Z,98353.81
2023-05-16T04:04:39.062Z,98360.78
2023-05-16T04:07:06.502Z,98370.13
2023-05-16T04:09:32.894Z,98366.91
2023-05-16T04:12:01.855Z,98377.03
2023-05-16T04:14:28.281Z,98372.50
2023-05-16T04:16:54.678Z,98382.13
2023-05-16T04:19:21.179Z,98379.69
2023-05-16T04:21:47.550Z,98385.81
2023-05-16T04:24:13.884Z,98378.09
2023-05-16T04:26:40.191Z,98388.75
2023-05-16T04:29:06.534Z,98390.59
2023-05-16T04:31:32.895Z,98388.75
2023-05-16T04:33:59.306Z,98392.47
2023-05-16T04:36:30.060Z,98391.91
2023-05-16T04:38:56.660Z,98395.63
2023-05-16T04:41:23.955Z,98397.75
2023-05-16T04:43:50.640Z,98394.03
2023-05-16T04:46:17.256Z,98400.41
2023-05-16T04:48:43.633Z,98411.28
2023-05-16T04:51:09.968Z,98407.84
2023-05-16T04:53:36.539Z,98412.34
2023-05-16T04:56:02.913Z,98422.19
2023-05-16T04:58:29.234Z,98423.00
2023-05-16T05:00:55.879Z,98428.06
2023-05-16T05:03:22.302Z,98432.34
2023-05-16T05:05:48.697Z,98431.56
2023-05-16T05:08:15.001Z,98432.34
2023-05-16T05:10:41.836Z,98425.97
2023-05-16T05:13:08.173Z,98428.63
2023-05-16T05:15:34.506Z,98439.81
2023-05-16T05:18:01.096Z,98438.22
2023-05-16T05:20:27.612Z,98432.88
2023-05-16T05:22:53.907Z,98432.09
2023-05-16T05:25:20.288Z,98437.41
2023-05-16T05:27:46.777Z,98447.00
2023-05-16T05:30:13.125Z,98447.78
2023-05-16T05:32:39.818Z,98448.84
2023-05-16T05:35:06.444Z,98466.69
2023-05-16T05:37:32.790Z,98467.75
2023-05-16T05:39:59.183Z,98465.31
2023-05-16T05:42:25.502Z,98468.25
2023-05-16T05:44:51.819Z,98472.50
2023-05-16T05:47:18.191Z,98478.09
2023-05-16T05:49:44.526Z,98479.69
2023-05-16T05:52:10.952Z,98484.78
2023-05-16T05:54:37.299Z,98489.03
2023-05-16T05:57:03.662Z,98499.41
2023-05-16T05:59:29.987Z,98499.72
2023-05-16T06:01:56.335Z,98504.78
2023-05-16T06:04:22.655Z,98505.56
2023-05-16T06:06:49.525Z,98515.41
2023-05-16T06:09:16.031Z,98514.63
2023-05-16T06:11:43.259Z,98517.84
2023-05-16T06:14:09.611Z,98514.94
2023-05-16T06:16:36.013Z,98516.78
2023-05-16T06:19:02.555Z,98525.56
2023-05-16T06:21:28.987Z,98527.97
2023-05-16T06:23:55.425Z,98521.84
2023-05-16T06:26:22.692Z,98533.56
2023-05-16T06:28:49.019Z,98541.53
2023-05-16T06:31:15.363Z,98538.63
2023-05-16T06:33:41.913Z,98546.59
2023-05-16T06:36:08.234Z,98550.06
2023-05-16T06:38:34.583Z,98548.47
2023-05-16T06:41:01.048Z,98553.25
2023-05-16T06:43:27.413Z,98551.63
2023-05-16T06:45:53.770Z,98553.47
2023-05-16T06:48:20.341Z,98546.28
2023-05-16T06:50:51.797Z,98548.19
2023-05-16T06:53:18.347Z,98546.16
2023-05-16T06:55:44.819Z,98550.72
2023-05-16T06:58:11.352Z,98552.38
2023-05-16T07:00:37.780Z,98547.66
2023-05-16T07:03:04.543Z,98549.56
2023-05-16T07:05:31.167Z,98557.63
2023-05-16T07:07:57.544Z,98545.13
2023-05-16T07:10:23.982Z,98548.91
2023-05-16T07:12:50.546Z,98555.00
2023-05-16T07:15:16.963Z,98561.69
2023-05-16T07:17:43.642Z,98568.94
2023-05-16T07:20:13.476Z,98568.75
2023-05-16T07:22:40.151Z,98575.47
2023-05-16T07:25:06.784Z,98566.41
2023-05-16T07:27:33.154Z,98569.59
2023-05-16T07:29:59.544Z,98568.31
2023-05-16T07:32:25.973Z,98567.81
2023-05-16T07:34:52.370Z,98565.16
2023-05-16T07:37:18.938Z,98570.75
2023-05-16T07:39:47.486Z,98564.88
2023-05-16T07:42:13.901Z,98566.78
2023-05-16T07:44:40.474Z,98570.47
2023-05-16T07:47:06.892Z,98567.56
2023-05-16T07:49:33.383Z,98575.31
2023-05-16T07:51:59.778Z,98578.34
2023-05-16T07:54:26.155Z,98566.41
2023-05-16T07:56:52.522Z,98580.56
2023-05-16T07:59:18.914Z,98573.66
2023-05-16T08:01:45.298Z,98574.16
2023-05-16T08:04:11.674Z,98582.16
2023-05-16T08:06:38.061Z,98595.44
2023-05-16T08:09:04.431Z,98593.28
2023-05-16T08:11:30.811Z,98594.34
2023-05-16T08:13:57.169Z,98593.88
2023-05-16T08:16:23.590Z,98590.16
2023-05-16T08:18:50.074Z,98587.50
2023-05-16T08:21:16.737Z,98591.00
2023-05-16T08:23:43.364Z,98588.41
2023-05-16T08:26:09.771Z,98590.81
2023-05-16T08:28:36.149Z,98590.56
2023-05-16T08:31:02.657Z,98588.19
2023-05-16T08:33:29.062Z,98581.81
2023-05-16T08:35:55.432Z,98592.44
2023-05-16T08:38:21.786Z,98595.31
2023-05-16T08:40:48.220Z,98600.63
2023-05-16T08:43:14.656Z,98605.69
2023-05-16T08:45:41.539Z,98599.28
2023-05-16T08:48:10.121Z,98601.44
2023-05-16T08:50:36.866Z,98596.91
2023-05-16T08:53:07.037Z,98601.47
2023-05-16T08:55:33.463Z,98603.88
2023-05-16T08:57:59.825Z,98603.34
2023-05-16T09:00:26.747Z,98594.31
2023-05-16T09:02:53.180Z,98589.78
2023-05-16T09:05:19.571Z,98589.56
2023-05-16T09:07:46.137Z,98587.19
2023-05-16T09:10:12.621Z,98597.38
2023-05-16T09:12:39.467Z,98595.78
2023-05-16T09:15:06.463Z,98592.31
2023-05-16T09:17:39.847Z,98598.97
2023-05-16T09:20:14.687Z,98594.69
2023-05-16T09:22:41.255Z,98605.34
2023-05-16T09:25:12.746Z,98601.06
2023-05-16T09:27:46.368Z,98605.91
2023-05-16T09:30:14.003Z,98605.06
2023-05-16T09:32:45.728Z,98607.50
2023-05-16T09:35:16.601Z,98606.16
2023-05-16T09:37:46.948Z,98607.75
2023-05-16T09:40:13.559Z,98605.09
2023-05-16T09:42:39.923Z,98606.47
2023-05-16T09:45:06.499Z,98599.00
2023-05-16T09:47:32.896Z,98617.66
2023-05-16T09:49:59.312Z,98613.41
2023-05-16T09:52:29.527Z,98607.56
2023-05-16T09:54:55.957Z,98601.94
2023-05-16T09:57:23.510Z,98609.16
2023-05-16T09:59:49.893Z,98618.22
2023-05-16T10:02:16.526Z,98602.47
2023-05-16T10:04:43.057Z,98596.94
2023-05-16T10:07:09.903Z,98598.28
2023-05-16T10:09:36.692Z,98600.97
2023-05-16T10:12:04.340Z,98604.09
2023-05-16T10:14:32.137Z,98609.44
2023-05-16T10:16:58.567Z,98603.53
2023-05-16T10:19:24.981Z,98611.53
2023-05-16T10:21:52.545Z,98605.97
2023-05-16T10:24:22.040Z,98605.97
2023-05-16T10:26:48.445Z,98596.44
2023-05-16T10:29:14.800Z,98586.28
2023-05-16T10:31:41.297Z,98593.78
2023-05-16T10:34:07.750Z,98582.31
2023-05-16T10:36:34.311Z,98603.09
2023-05-16T10:39:00.686Z,98599.34
2023-05-16T10:41:27.047Z,98598.56
2023-05-16T10:43:57.574Z,98598.31
2023-05-16T10:46:24.040Z,98599.34
2023-05-16T10:48:52.106Z,98600.72
2023-05-16T10:51:23.424Z,98601.25
2023-05-16T10:53:51.533Z,98598.84
2023-05-16T10:56:22.281Z,98595.69
2023-05-16T10:58:48.830Z,98593.53
2023-05-16T11:01:18.190Z,98590.88
2023-05-16T11:03:56.724Z,98592.22
2023-05-16T11:06:24.843Z,98587.19
2023-05-16T11:09:09.787Z,98586.91
2023-05-16T11:11:48.725Z,98596.50
2023-05-16T11:14:34.110Z,98598.66
2023-05-16T11:17:06.648Z,98604.50
2023-05-16T11:19:34.142Z,98593.84
2023-05-16T11:22:17.066Z,98587.19
2023-05-16T11:24:51.094Z,98597.84
2023-05-16T11:27:28.195Z,98598.63
2023-05-16T11:29:55.122Z,98600.47
2023-05-16T11:32:24.885Z,98606.09
2023-05-16T11:34:52.012Z,98598.09
2023-05-16T11:37:19.611Z,98598.09
2023-05-16T11:39:46.491Z,98593.03
2023-05-16T11:42:13.373Z,98601.03
2023-05-16T11:44:40.747Z,98603.44
2023-05-16T11:47:08.052Z,98613.56
2023-05-16T11:49:35.455Z,98621.03
2023-05-16T11:52:02.122Z,98615.44
2023-05-16T11:54:28.537Z,98622.56
2023-05-16T11:56:54.900Z,98638.06
2023-05-16T11:59:21.602Z,98630.84
2023-05-16T12:01:51.198Z,98629.53
2023-05-16T12:04:17.760Z,98612.19
2023-05-16T12:06:44.581Z,98615.44
2023-05-16T12:09:16.116Z,98627.69
2023-05-16T12:11:44.257Z,98623.97
2023-05-16T12:14:11.133Z,98612.50
2023-05-16T12:16:37.895Z,98617.03
2023-05-16T12:19:07.587Z,98614.59
2023-05-16T12:21:34.072Z,98616.72
2023-05-16T12:24:01.046Z,98623.66
2023-05-16T12:26:28.255Z,98614.59
2023-05-16T12:28:57.917Z,98612.72
2023-05-16T12:31:31.502Z,98632.75
2023-05-16T12:33:58.766Z,98616.47
2023-05-16T12:36:25.270Z,98629.00
2023-05-16T12:38:52.548Z,98622.06
2023-05-16T12:41:19.705Z,98622.34
2023-05-16T12:43:46.262Z,98629.28
2023-05-16T12:46:12.692Z,98629.28
2023-05-16T12:48:43.219Z,98629.53
2023-05-16T12:51:13.876Z,98627.91
2023-05-16T12:53:57.731Z,98618.88
2023-05-16T12:56:28.199Z,98623.94
2023-05-16T12:58:54.619Z,98627.41
2023-05-16T13:01:21.017Z,98627.38
2023-05-16T13:03:47.497Z,98616.19
2023-05-16T13:06:13.908Z,98613.53
2023-05-16T13:08:40.280Z,98616.22
2023-05-16T13:11:06.705Z,98612.97
2023-05-16T13:13:36.254Z,98616.72
2023-05-16T13:16:03.202Z,98607.38
2023-05-16T13:18:29.633Z,98614.03
2023-05-16T13:20:56.084Z,98614.84
2023-05-16T13:23:22.474Z,98621.53
2023-05-16T13:25:49.573Z,98614.03
2023-05-16T13:28:16.241Z,98622.81
2023-05-16T13:30:42.627Z,98628.44
2023-05-16T13:33:09.022Z,98629.22
2023-05-16T13:35:35.398Z,98626.00
2023-05-16T13:38:02.092Z,98631.09
2023-05-16T13:40:29.377Z,98642.81
2023-05-16T13:42:56.632Z,98647.63
2023-05-16T13:45:22.989Z,98644.16
2023-05-16T13:47:49.389Z,98644.97
2023-05-16T13:50:16.143Z,98659.91
2023-05-16T13:52:42.575Z,98646.34
2023-05-16T13:55:09.541Z,98653.78
2023-05-16T13:57:36.255Z,98657.25
2023-05-16T14:00:31.129Z,98652.19
2023-05-16T14:02:54.467Z,98660.72
2023-05-16T14:05:21.212Z,98650.88
2023-05-16T14:07:47.593Z,98654.00
2023-05-16T14:10:13.984Z,98655.09
2023-05-16T14:12:40.676Z,98651.38
2023-05-16T14:15:07.689Z,98655.34
2023-05-16T14:17:34.170Z,98662.78
2023-05-16T14:20:00.580Z,98655.63
2023-05-16T14:22:28.427Z,98659.31
2023-05-16T14:24:56.808Z,98663.28
2023-05-16T14:27:23.184Z,98667.03
2023-05-16T14:29:49.697Z,98665.16
2023-05-16T14:32:16.231Z,98662.50
2023-05-16T14:34:42.682Z,98674.22
2023-05-16T14:37:10.327Z,98654.19
2023-05-16T14:39:36.692Z,98669.41
2023-05-16T14:42:03.048Z,98656.34
2023-05-16T14:44:29.485Z,98664.06
2023-05-16T14:46:55.867Z,98657.13
2023-05-16T14:49:22.248Z,98661.41
2023-05-16T14:51:50.509Z,98665.94
2023-05-16T14:54:17.020Z,98664.34
2023-05-16T14:56:43.473Z,98667.00
2023-05-16T14:59:09.830Z,98673.41
2023-05-16T15:01:36.290Z,98669.94
2023-05-16T15:04:02.696Z,98677.38
2023-05-16T15:06:29.054Z,98679.25
2023-05-16T15:08:55.547Z,98680.31
2023-05-16T15:11:21.935Z,98691.25
2023-05-16T15:13:48.795Z,98688.81
2023-05-16T15:16:15.578Z,98692.28
2023-05-16T15:18:42.011Z,98694.16
2023-05-16T15:21:09.001Z,98698.69
2023-05-16T15:23:36.421Z,98711.22
2023-05-16T15:26:02.824Z,98704.00
2023-05-16T15:28:29.195Z,98698.16
2023-05-16T15:30:55.643Z,98705.09
2023-05-16T15:33:22.022Z,98704.81
2023-05-16T15:35:48.492Z,98713.09
2023-05-16T15:38:14.885Z,98705.63
2023-05-16T15:40:41.247Z,98709.59
2023-05-16T15:43:07.622Z,98717.63
2023-05-16T15:45:34.055Z,98711.97
2023-05-16T15:48:00.785Z,98706.91
2023-05-16T15:50:27.265Z,98705.81
2023-05-16T15:52:54.035Z,98711.97
2023-05-16T15:55:20.557Z,98713.28
2023-05-16T15:57:47.020Z,98710.69
2023-05-16T16:00:13.625Z,98707.84
2023-05-16T16:02:41.402Z,98716.09
2023-05-16T16:05:07.993Z,98718.03
2023-05-16T16:07:34.371Z,98724.50
2023-05-16T16:10:00.859Z,98721.34
2023-05-16T16:12:28.916Z,98723.22
2023-05-16T16:14:55.278Z,98714.97
2023-05-16T16:17:21.657Z,98717.09
2023-05-16T16:19:48.021Z,98720.78
2023-05-16T16:22:14.390Z,98723.44
2023-05-16T16:24:40.820Z,98719.19
2023-05-16T16:27:07.191Z,98720.50
2023-05-16T16:29:33.559Z,98715.69
2023-05-16T16:31:59.992Z,98717.53
2023-05-16T16:34:26.441Z,98715.69
2023-05-16T16:36:52.826Z,98717.00
2023-05-16T16:39:19.965Z,98723.09
2023-05-16T16:41:46.597Z,98737.50
2023-05-16T16:44:13.020Z,98725.22
2023-05-16T16:46:39.697Z,98726.03
2023-05-16T16:49:06.615Z,98728.69
2023-05-16T16:51:33.074Z,98724.16
2023-05-16T16:53:59.694Z,98736.69
2023-05-16T16:56:27.957Z,98728.44
2023-05-16T16:58:54.371Z,98728.44
2023-05-16T17:01:21.767Z,98736.19
2023-05-16T17:03:48.168Z,98726.59
2023-05-16T17:06:14.529Z,98727.63
2023-05-16T17:08:41.100Z,98728.44
2023-05-16T17:11:07.763Z,98729.50
2023-05-16T17:13:37.469Z,98738.84
2023-05-16T17:16:04.156Z,98738.84
2023-05-16T17:18:33.054Z,98729.25
2023-05-16T17:21:01.125Z,98733.47
2023-05-16T17:23:27.475Z,98733.72
2023-05-16T17:25:53.851Z,98741.72
2023-05-16T17:28:20.228Z,98745.75
2023-05-16T17:30:46.605Z,98746.25
2023-05-16T17:33:13.013Z,98745.44
2023-05-16T17:35:40.678Z,98748.91
2023-05-16T17:38:07.107Z,98754.22
2023-05-16T17:40:33.477Z,98745.69
2023-05-16T17:42:59.843Z,98751.81
2023-05-16T17:45:26.343Z,98749.16
2023-05-16T17:47:52.856Z,98754.75
2023-05-16T17:50:20.342Z,98750.47
2023-05-16T17:52:47.173Z,98754.97
2023-05-16T17:55:13.621Z,98753.66
2023-05-16T17:57:39.991Z,98760.84
2023-05-16T18:00:10.508Z,98768.03
2023-05-16T18:02:38.640Z,98767.44
2023-05-16T18:05:05.445Z,98762.09
2023-05-16T18:07:32.056Z,98760.84
2023-05-16T18:09:58.770Z,98771.69
2023-05-16T18:12:25.119Z,98774.16
2023-05-16T18:14:51.471Z,98778.16
2023-05-16T18:17:18.353Z,98782.19
2023-05-16T18:19:44.807Z,98785.66
2023-05-16T18:22:13.087Z,98791.00
2023-05-16T18:24:39.947Z,98792.59
2023-05-16T18:27:06.358Z,98794.47
2023-05-16T18:29:32.733Z,98802.47
2023-05-16T18:32:00.010Z,98800.84
2023-05-16T18:34:26.395Z,98794.47
2023-05-16T18:36:52.758Z,98799.75
2023-05-16T18:39:20.330Z,98805.34
2023-05-16T18:41:48.232Z,98794.06
2023-05-16T18:44:16.973Z,98812.19
2023-05-16T18:46:46.647Z,98810.00
2023-05-16T18:49:13.273Z,98812.25
2023-05-16T18:51:39.649Z,98811.97
2023-05-16T18:54:06.100Z,98814.97
2023-05-16T18:56:32.678Z,98817.38
2023-05-16T18:58:59.018Z,98828.00
2023-05-16T19:01:25.436Z,98821.88
2023-05-16T19:03:52.142Z,98835.22
2023-05-16T19:06:19.026Z,98827.22
2023-05-16T19:08:47.972Z,98827.47
2023-05-16T19:11:14.896Z,98834.19
2023-05-16T19:13:41.260Z,98833.13
2023-05-16T19:16:07.620Z,98835.03
2023-05-16T19:18:35.201Z,98841.97
2023-05-16T19:21:01.761Z,98847.28
2023-05-16T19:23:28.138Z,98848.91
2023-05-16T19:25:54.689Z,98856.41
2023-05-16T19:28:21.329Z,98851.56
2023-05-16T19:30:47.704Z,98867.06
2023-05-16T19:33:14.991Z,98869.72
2023-05-16T19:35:41.522Z,98862.53
2023-05-16T19:38:07.913Z,98866.25
2023-05-16T19:40:34.400Z,98867.59
2023-05-16T19:43:00.848Z,98865.19
2023-05-16T19:45:27.413Z,98870.78
2023-05-16T19:47:54.131Z,98875.84
2023-05-16T19:50:21.736Z,98875.31
2023-05-16T19:52:48.362Z,98876.91
2023-05-16T19:55:14.734Z,98874.75
2023-05-16T19:57:41.406Z,98875.00
2023-05-16T20:00:08.262Z,98866.69
2023-05-16T20:02:34.720Z,98868.06
2023-05-16T20:05:01.177Z,98870.16
2023-05-16T20:07:27.601Z,98874.41
2023-05-16T20:09:53.976Z,98877.41
2023-05-16T20:12:20.503Z,98877.59
2023-05-16T20:14:47.316Z,98877.28
2023-05-16T20:17:13.725Z,98878.09
2023-05-16T20:19:43.815Z,98871.16
2023-05-16T20:22:10.623Z,98875.91
2023-05-16T20:24:37.010Z,98880.44
2023-05-16T20:27:03.460Z,98888.69
2023-05-16T20:29:31.079Z,98887.06
2023-05-16T20:31:57.625Z,98890.53
2023-05-16T20:34:23.989Z,98883.34
2023-05-16T20:36:50.399Z,98887.06
2023-05-16T20:39:16.767Z,98887.06
2023-05-16T20:41:43.121Z,98885.22
2023-05-16T20:44:09.520Z,98882.81
2023-05-16T20:46:37.160Z,98890.22
2023-05-16T20:49:03.667Z,98883.03
2023-05-16T20:51:30.297Z,98888.34
2023-05-16T20:53:56.785Z,98884.09
2023-05-16T20:56:23.154Z,98878.44
2023-05-16T20:58:49.506Z,98877.38
2023-05-16T21:01:16.062Z,98877.88
2023-05-16T21:03:42.507Z,98884.28
2023-05-16T21:06:09.060Z,98876.50
2023-05-16T21:08:35.532Z,98876.75
2023-05-16T21:11:01.905Z,98874.09
2023-05-16T21:13:28.862Z,98875.38
2023-05-16T21:15:55.226Z,98879.91
2023-05-16T21:18:21.670Z,98871.91
2023-05-16T21:20:48.275Z,98882.03
2023-05-16T21:23:14.631Z,98875.91
2023-05-16T21:25:41.217Z,98879.09
2023-05-16T21:28:07.750Z,98878.31
2023-05-16T21:30:34.147Z,98880.97
2023-05-16T21:33:00.663Z,98882.81
2023-05-16T21:35:27.364Z,98879.38
2023-05-16T21:37:53.853Z,98881.22
2023-05-16T21:40:24.809Z,98878.78
2023-05-16T21:42:52.460Z,98884.09
2023-05-16T21:45:18.939Z,98894.53
2023-05-16T21:47:45.539Z,98883.31
2023-05-16T21:50:12.148Z,98892.09
2023-05-16T21:52:38.698Z,98888.88
2023-05-16T21:55:05.592Z,98890.75
2023-05-16T21:57:31.968Z,98896.88
2023-05-16T21:59:58.369Z,98890.75
2023-05-16T22:02:24.923Z,98886.16
2023-05-16T22:04:54.427Z,98894.94
2023-05-16T22:07:20.881Z,98884.28
2023-05-16T22:09:50.788Z,98886.97
2023-05-16T22:12:17.224Z,98893.09
2023-05-16T22:14:43.657Z,98896.81
2023-05-16T22:17:10.098Z,98903.19
2023-05-16T22:19:36.541Z,98903.19
2023-05-16T22:22:02.978Z,98900.75
2023-05-16T22:24:29.362Z,98905.53
2023-05-16T22:26:55.820Z,98911.09
2023-05-16T22:29:22.216Z,98908.66
2023-05-16T22:31:48.575Z,98911.31
2023-05-16T22:34:14.967Z,98905.19
2023-05-16T22:36:42.004Z,98907.06
2023-05-16T22:39:08.601Z,98902.78
2023-05-16T22:41:34.962Z,98910.78
2023-05-16T22:44:01.336Z,98903.03
2023-05-16T22:46:27.780Z,98912.84
2023-05-16T22:48:54.349Z,98907.53
2023-05-16T22:51:20.734Z,98912.06
2023-05-16T22:53:47.100Z,98918.44
2023-05-16T22:56:14.146Z,98913.09
2023-05-16T22:58:40.513Z,98921.09
2023-05-16T23:01:06.892Z,98919.22
2023-05-16T23:03:34.185Z,98922.16
2023-05-16T23:06:00.619Z,98911.50
2023-05-16T23:08:27.057Z,98915.22
2023-05-16T23:10:53.459Z,98917.88
2023-05-16T23:13:19.857Z,98917.88
2023-05-16T23:15:46.250Z,98915.22
2023-05-16T23:18:12.755Z,98919.97
2023-05-16T23:20:39.201Z,98916.50
2023-05-16T23:23:05.552Z,98923.69
2023-05-16T23:25:31.939Z,98922.06
2023-05-16T23:27:58.325Z,98925.78
2023-05-16T23:30:24.760Z,98925.78
2023-05-16T23:32:54.455Z,98919.56
2023-05-16T23:35:20.963Z,98925.22
2023-05-16T23:37:47.482Z,98922.81
2023-05-16T23:40:13.848Z,98920.13
2023-05-16T23:42:41.104Z,98919.34
2023-05-16T23:45:07.835Z,98916.91
2023-05-16T23:47:34.400Z,98924.06
2023-05-16T23:50:00.844Z,98921.41
2023-05-16T23:52:27.232Z,98925.13
2023-05-16T23:54:53.626Z,98930.44
2023-05-16T23:57:19.988Z,98923.53
2023-05-16T23:59:46.382Z,98921.66
